Weather at Kansas City International Airport

Public forecast

Using degrees Fahrenheit for public forecast. Weather courtesy of forecast.io.

Current aviation weather report (METAR) for Kansas City International Airport

Retrieved 2021/09/23 13:53 UTC (39 minutes ago):

KMCI 231353Z 22006KT 10SM CLR 14/09 A3016 RMK AO2 SLP210 T01390089

Aviation forecast (TAF) for Kansas City International Airport

Retrieved 2021/09/23 12:22 UTC (2 hours ago):

TAF KMCI 231120Z 2312/2412 19006KT P6SM SKC